createdAt,value
2023-05-09T00:00:47.135Z,88.50
2023-05-09T00:03:15.282Z,88.70
2023-05-09T00:05:44.718Z,88.70
2023-05-09T00:08:12.671Z,88.80
2023-05-09T00:10:40.672Z,88.80
2023-05-09T00:13:09.038Z,89.00
2023-05-09T00:15:37.009Z,89.00
2023-05-09T00:18:05.327Z,89.20
2023-05-09T00:20:33.977Z,89.10
2023-05-09T00:23:04.516Z,89.30
2023-05-09T00:25:32.446Z,89.40
2023-05-09T00:28:00.467Z,89.50
2023-05-09T00:30:28.416Z,89.60
2023-05-09T00:32:56.437Z,89.70
2023-05-09T00:35:24.624Z,89.70
2023-05-09T00:37:52.609Z,89.80
2023-05-09T00:40:22.011Z,89.80
2023-05-09T00:42:50.008Z,89.90
2023-05-09T00:45:17.948Z,90.00
2023-05-09T00:47:45.964Z,90.00
2023-05-09T00:50:14.866Z,90.10
2023-05-09T00:52:42.967Z,90.10
2023-05-09T00:55:12.541Z,90.10
2023-05-09T00:57:42.059Z,90.30
2023-05-09T01:00:13.239Z,90.20
2023-05-09T01:02:42.339Z,90.20
2023-05-09T01:05:11.120Z,90.60
2023-05-09T01:07:44.615Z,90.40
2023-05-09T01:10:22.064Z,90.40
2023-05-09T01:13:00.648Z,90.40
2023-05-09T01:15:32.943Z,90.40
2023-05-09T01:18:06.421Z,90.40
2023-05-09T01:20:38.227Z,90.50
2023-05-09T01:23:21.824Z,90.50
2023-05-09T01:26:02.739Z,90.50
2023-05-09T01:28:45.671Z,90.60
2023-05-09T01:31:16.524Z,90.70
2023-05-09T01:33:47.998Z,90.60
2023-05-09T01:36:18.414Z,90.60
2023-05-09T01:38:48.044Z,90.70
2023-05-09T01:41:17.845Z,90.70
2023-05-09T01:43:48.668Z,90.90
2023-05-09T01:46:19.213Z,90.80
2023-05-09T01:48:47.595Z,90.80
2023-05-09T01:51:16.404Z,90.80
2023-05-09T01:53:45.645Z,90.80
2023-05-09T01:56:14.387Z,90.80
2023-05-09T01:58:43.409Z,90.80
2023-05-09T02:01:14.485Z,90.80
2023-05-09T02:03:46.247Z,90.80
2023-05-09T02:06:15.511Z,90.80
2023-05-09T02:08:44.638Z,90.90
2023-05-09T02:11:12.603Z,90.90
2023-05-09T02:13:40.871Z,90.90
2023-05-09T02:16:10.311Z,90.90
2023-05-09T02:18:38.369Z,90.90
2023-05-09T02:21:07.981Z,90.80
2023-05-09T02:23:36.236Z,90.80
2023-05-09T02:26:04.578Z,90.80
2023-05-09T02:28:33.437Z,90.80
2023-05-09T02:31:03.370Z,90.80
2023-05-09T02:33:32.260Z,90.70
2023-05-09T02:36:00.859Z,90.80
2023-05-09T02:38:30.311Z,91.00
2023-05-09T02:40:58.297Z,90.70
2023-05-09T02:43:26.355Z,90.60
2023-05-09T02:45:54.373Z,90.60
2023-05-09T02:48:22.372Z,90.60
2023-05-09T02:50:50.453Z,90.50
2023-05-09T02:53:18.407Z,90.50
2023-05-09T02:55:47.982Z,90.50
2023-05-09T02:58:15.945Z,90.50
2023-05-09T03:00:44.429Z,90.50
2023-05-09T03:03:12.820Z,90.50
2023-05-09T03:05:40.940Z,90.40
2023-05-09T03:08:09.139Z,90.40
2023-05-09T03:10:37.108Z,90.40
2023-05-09T03:13:06.461Z,90.50
2023-05-09T03:15:34.430Z,90.50
2023-05-09T03:18:02.424Z,90.50
2023-05-09T03:20:30.419Z,90.50
2023-05-09T03:22:58.375Z,90.80
2023-05-09T03:25:27.203Z,90.50
2023-05-09T03:27:55.184Z,90.50
2023-05-09T03:30:26.230Z,90.60
2023-05-09T03:32:54.270Z,90.60
2023-05-09T03:35:22.496Z,90.60
2023-05-09T03:37:50.438Z,90.60
2023-05-09T03:40:18.535Z,90.60
2023-05-09T03:42:46.464Z,90.70
2023-05-09T03:45:14.687Z,90.70
2023-05-09T03:47:44.247Z,90.70
2023-05-09T03:50:12.328Z,90.70
2023-05-09T03:52:40.284Z,90.70
2023-05-09T03:55:09.237Z,90.70
2023-05-09T03:57:37.338Z,90.80
2023-05-09T04:00:08.555Z,90.80
2023-05-09T04:02:36.677Z,90.80
2023-05-09T04:05:06.555Z,90.80
2023-05-09T04:07:34.563Z,90.80
2023-05-09T04:10:02.555Z,90.90
2023-05-09T04:12:30.521Z,90.80
2023-05-09T04:14:58.547Z,90.80
2023-05-09T04:17:26.972Z,90.90
2023-05-09T04:19:54.977Z,90.90
2023-05-09T04:22:24.433Z,90.90
2023-05-09T04:24:52.330Z,90.90
2023-05-09T04:27:20.525Z,90.90
2023-05-09T04:29:49.787Z,90.90
2023-05-09T04:32:17.791Z,90.90
2023-05-09T04:34:45.965Z,90.90
2023-05-09T04:37:14.290Z,91.00
2023-05-09T04:39:43.786Z,91.00
2023-05-09T04:42:11.800Z,91.00
2023-05-09T04:44:39.771Z,91.10
2023-05-09T04:47:07.785Z,91.10
2023-05-09T04:49:35.759Z,91.10
2023-05-09T04:52:03.750Z,91.20
2023-05-09T04:54:31.802Z,91.20
2023-05-09T04:57:13.583Z,91.20
2023-05-09T04:59:44.901Z,91.20
2023-05-09T05:02:13.394Z,91.30
2023-05-09T05:04:41.432Z,91.30
2023-05-09T05:07:10.090Z,91.30
2023-05-09T05:09:38.080Z,91.20
2023-05-09T05:12:09.779Z,91.30
2023-05-09T05:14:38.186Z,91.30
2023-05-09T05:17:06.303Z,91.30
2023-05-09T05:19:34.326Z,91.40
2023-05-09T05:22:02.606Z,91.30
2023-05-09T05:24:30.625Z,91.40
2023-05-09T05:26:58.628Z,91.40
2023-05-09T05:29:27.924Z,91.40
2023-05-09T05:31:56.010Z,91.50
2023-05-09T05:34:24.082Z,91.40
2023-05-09T05:36:52.113Z,91.50
2023-05-09T05:39:20.074Z,91.50
2023-05-09T05:41:48.006Z,91.60
2023-05-09T05:44:15.973Z,91.60
2023-05-09T05:46:45.322Z,91.60
2023-05-09T05:49:13.339Z,91.60
2023-05-09T05:51:41.334Z,91.70
2023-05-09T05:54:09.260Z,92.00
2023-05-09T05:56:37.172Z,91.70
2023-05-09T05:59:05.402Z,91.60
2023-05-09T06:01:33.372Z,92.00
2023-05-09T06:04:02.808Z,91.60
2023-05-09T06:06:31.113Z,91.60
2023-05-09T06:08:59.119Z,91.60
2023-05-09T06:11:27.174Z,91.50
2023-05-09T06:13:55.191Z,91.40
2023-05-09T06:16:23.444Z,91.40
2023-05-09T06:18:53.358Z,91.30
2023-05-09T06:21:24.371Z,91.30
2023-05-09T06:24:06.682Z,91.30
2023-05-09T06:26:36.379Z,91.30
2023-05-09T06:29:04.459Z,91.30
2023-05-09T06:31:33.059Z,91.20
2023-05-09T06:34:01.190Z,91.30
2023-05-09T06:36:30.563Z,91.20
2023-05-09T06:38:58.592Z,91.30
2023-05-09T06:41:26.731Z,91.20
2023-05-09T06:43:54.738Z,91.20
2023-05-09T06:46:22.826Z,91.10
2023-05-09T06:48:50.949Z,91.10
2023-05-09T06:51:18.962Z,91.10
2023-05-09T06:53:48.291Z,91.10
2023-05-09T06:56:18.379Z,91.10
2023-05-09T06:58:47.980Z,91.10
2023-05-09T07:01:16.097Z,91.40
2023-05-09T07:03:44.166Z,91.20
2023-05-09T07:06:12.181Z,91.20
2023-05-09T07:08:40.225Z,91.10
2023-05-09T07:11:09.596Z,91.00
2023-05-09T07:13:37.581Z,91.00
2023-05-09T07:16:06.129Z,91.00
2023-05-09T07:18:34.194Z,91.00
2023-05-09T07:21:02.792Z,90.90
2023-05-09T07:23:30.896Z,90.90
2023-05-09T07:25:59.511Z,90.80
2023-05-09T07:28:28.914Z,90.70
2023-05-09T07:30:57.329Z,90.70
2023-05-09T07:33:25.334Z,90.60
2023-05-09T07:35:54.066Z,90.40
2023-05-09T07:38:22.608Z,90.40
2023-05-09T07:40:50.663Z,90.30
2023-05-09T07:43:18.632Z,90.40
2023-05-09T07:45:48.278Z,90.30
2023-05-09T07:48:16.415Z,90.20
2023-05-09T07:50:44.779Z,90.20
2023-05-09T07:53:12.757Z,90.10
2023-05-09T07:55:40.719Z,90.00
2023-05-09T07:58:08.689Z,89.70
2023-05-09T08:00:36.687Z,89.40
2023-05-09T08:03:06.381Z,89.40
2023-05-09T08:05:34.419Z,90.00
2023-05-09T08:08:02.455Z,88.80
2023-05-09T08:10:32.211Z,89.00
2023-05-09T08:13:00.249Z,89.00
2023-05-09T08:15:28.261Z,89.00
2023-05-09T08:17:56.322Z,89.00
2023-05-09T08:20:25.653Z,88.80
2023-05-09T08:22:53.661Z,88.10
2023-05-09T08:25:21.797Z,87.90
2023-05-09T08:27:50.527Z,87.80
2023-05-09T08:30:20.545Z,87.90
2023-05-09T08:32:48.609Z,87.50
2023-05-09T08:35:17.026Z,87.60
2023-05-09T08:37:47.879Z,87.10
2023-05-09T08:40:17.178Z,87.80
2023-05-09T08:42:46.714Z,86.70
2023-05-09T08:45:15.909Z,86.90
2023-05-09T08:47:45.316Z,86.90
2023-05-09T08:50:15.593Z,87.10
2023-05-09T08:52:44.012Z,87.00
2023-05-09T08:55:13.694Z,87.30
2023-05-09T08:57:42.300Z,87.30
2023-05-09T09:00:14.106Z,86.80
2023-05-09T09:02:43.186Z,86.30
2023-05-09T09:05:34.227Z,86.20
2023-05-09T09:08:03.517Z,86.60
2023-05-09T09:10:34.233Z,87.40
2023-05-09T09:13:04.980Z,86.30
2023-05-09T09:15:37.955Z,86.00
2023-05-09T09:18:09.761Z,86.50
2023-05-09T09:20:42.860Z,86.60
2023-05-09T09:23:11.588Z,86.50
2023-05-09T09:25:40.918Z,85.60
2023-05-09T09:28:08.950Z,85.60
2023-05-09T09:30:36.970Z,85.40
2023-05-09T09:33:08.077Z,84.70
2023-05-09T09:35:40.581Z,85.20
2023-05-09T09:38:08.577Z,85.60
2023-05-09T09:40:39.273Z,85.90
2023-05-09T09:43:09.103Z,85.20
2023-05-09T09:45:38.271Z,85.40
2023-05-09T09:48:08.264Z,85.50
2023-05-09T09:50:36.278Z,85.50
2023-05-09T09:53:04.267Z,85.60
2023-05-09T09:55:33.101Z,85.90
2023-05-09T09:58:01.123Z,85.60
2023-05-09T10:00:32.160Z,85.00
2023-05-09T10:03:00.989Z,84.40
2023-05-09T10:05:30.776Z,84.20
2023-05-09T10:08:00.529Z,83.90
2023-05-09T10:10:29.915Z,84.00
2023-05-09T10:12:59.404Z,83.90
2023-05-09T10:15:35.566Z,83.00
2023-05-09T10:18:14.590Z,82.90
2023-05-09T10:20:44.907Z,82.80
2023-05-09T10:23:17.217Z,82.80
2023-05-09T10:25:48.516Z,82.70
2023-05-09T10:28:19.799Z,82.80
2023-05-09T10:30:55.774Z,82.30
2023-05-09T10:33:31.847Z,81.70
2023-05-09T10:36:01.843Z,81.90
2023-05-09T10:38:31.371Z,80.20
2023-05-09T10:41:00.424Z,80.10
2023-05-09T10:43:28.753Z,80.70
2023-05-09T10:45:57.143Z,81.00
2023-05-09T10:48:27.154Z,81.70
2023-05-09T10:50:55.822Z,80.50
2023-05-09T10:53:24.801Z,80.20
2023-05-09T10:55:55.569Z,79.70
2023-05-09T10:58:27.251Z,80.40
2023-05-09T11:00:57.231Z,81.50
2023-05-09T11:03:28.227Z,80.80
2023-05-09T11:05:58.413Z,80.40
2023-05-09T11:08:27.684Z,80.70
2023-05-09T11:10:57.258Z,80.10
2023-05-09T11:13:27.355Z,80.40
2023-05-09T11:16:12.442Z,80.10
2023-05-09T11:18:54.636Z,80.50
2023-05-09T11:21:22.957Z,80.40
2023-05-09T11:23:54.509Z,80.50
2023-05-09T11:26:24.587Z,80.70
2023-05-09T11:28:56.758Z,80.30
2023-05-09T11:31:24.876Z,80.40
2023-05-09T11:34:04.766Z,81.30
2023-05-09T11:36:33.791Z,80.60
2023-05-09T11:39:07.253Z,80.10
2023-05-09T11:41:43.565Z,80.70
2023-05-09T11:44:16.450Z,79.90
2023-05-09T11:46:44.545Z,80.50
2023-05-09T11:49:14.166Z,80.60
2023-05-09T11:51:42.640Z,80.70
2023-05-09T11:54:11.970Z,80.70
2023-05-09T11:56:42.242Z,79.70
2023-05-09T11:59:13.147Z,79.00
2023-05-09T12:01:41.325Z,79.30
2023-05-09T12:04:09.540Z,79.30
2023-05-09T12:06:39.051Z,79.10
2023-05-09T12:09:09.051Z,78.50
2023-05-09T12:11:37.296Z,77.80
2023-05-09T12:14:05.363Z,78.20
2023-05-09T12:16:33.430Z,78.80
2023-05-09T12:19:01.798Z,78.80
2023-05-09T12:21:29.922Z,78.90
2023-05-09T12:23:59.498Z,79.10
2023-05-09T12:26:27.809Z,79.30
2023-05-09T12:28:55.793Z,78.90
2023-05-09T12:31:24.162Z,78.70
2023-05-09T12:33:52.311Z,78.80
2023-05-09T12:36:20.405Z,78.10
2023-05-09T12:38:55.054Z,77.60
2023-05-09T12:43:56.058Z,77.90
2023-05-09T12:46:24.404Z,77.60
2023-05-09T12:48:52.549Z,77.40
2023-05-09T12:51:21.611Z,76.80
2023-05-09T12:53:50.143Z,76.90
2023-05-09T12:56:19.236Z,77.40
2023-05-09T12:58:52.730Z,77.60
2023-05-09T13:01:21.302Z,77.40
2023-05-09T13:03:53.397Z,77.30
2023-05-09T13:06:21.651Z,77.20
2023-05-09T13:08:59.913Z,76.50
2023-05-09T13:11:28.700Z,76.80
2023-05-09T13:13:58.780Z,76.50
2023-05-09T13:16:26.947Z,77.10
2023-05-09T13:18:54.972Z,76.90
2023-05-09T13:21:22.927Z,77.10
2023-05-09T13:23:51.258Z,77.20
2023-05-09T13:26:19.521Z,76.40
2023-05-09T13:28:47.588Z,76.80
2023-05-09T13:31:17.143Z,77.80
2023-05-09T13:33:45.226Z,76.70
2023-05-09T13:36:13.248Z,76.70
2023-05-09T13:38:42.034Z,76.80
2023-05-09T13:41:10.667Z,76.40
2023-05-09T13:43:40.045Z,76.30
2023-05-09T13:46:08.284Z,76.40
2023-05-09T13:48:37.703Z,76.50
2023-05-09T13:51:07.509Z,76.50
2023-05-09T13:53:38.118Z,76.50
2023-05-09T13:56:09.247Z,76.30
2023-05-09T13:58:37.492Z,76.40
2023-05-09T14:01:05.565Z,76.90
2023-05-09T14:03:33.586Z,76.10
2023-05-09T14:06:03.634Z,76.20
2023-05-09T14:08:31.908Z,76.10
2023-05-09T14:11:00.037Z,76.40
2023-05-09T14:13:28.129Z,76.40
2023-05-09T14:15:56.348Z,76.10
2023-05-09T14:18:24.478Z,75.80
2023-05-09T14:20:52.632Z,75.30
2023-05-09T14:23:22.303Z,75.50
2023-05-09T14:25:50.361Z,75.00
2023-05-09T14:28:18.345Z,75.30
2023-05-09T14:30:46.349Z,75.50
2023-05-09T14:33:14.532Z,75.50
2023-05-09T14:35:42.746Z,75.00
2023-05-09T14:38:12.438Z,75.20
2023-05-09T14:40:42.885Z,74.60
2023-05-09T14:43:11.326Z,74.80
2023-05-09T14:45:39.391Z,75.10
2023-05-09T14:48:07.663Z,74.50
2023-05-09T14:50:35.667Z,75.10
2023-05-09T14:53:03.847Z,74.60
2023-05-09T14:55:32.445Z,74.40
2023-05-09T14:58:02.604Z,74.60
2023-05-09T15:00:30.860Z,74.40
2023-05-09T15:02:58.946Z,74.50
2023-05-09T15:05:27.015Z,74.70
2023-05-09T15:07:55.093Z,74.50
2023-05-09T15:10:23.399Z,74.50
2023-05-09T15:12:51.476Z,74.50
2023-05-09T15:15:24.232Z,74.80
2023-05-09T15:17:53.175Z,75.30
2023-05-09T15:20:21.503Z,75.10
2023-05-09T15:22:50.644Z,75.70
2023-05-09T15:25:19.685Z,74.70
2023-05-09T15:27:50.324Z,74.70
2023-05-09T15:30:18.554Z,75.10
2023-05-09T15:32:48.033Z,75.50
2023-05-09T15:35:18.184Z,75.00
2023-05-09T15:37:46.506Z,75.20
2023-05-09T15:40:14.761Z,74.00
2023-05-09T15:42:43.311Z,72.90
2023-05-09T15:45:11.575Z,73.00
2023-05-09T15:47:39.556Z,73.40
2023-05-09T15:50:10.054Z,72.90
2023-05-09T15:52:38.086Z,73.30
2023-05-09T15:55:07.165Z,73.40
2023-05-09T15:57:35.248Z,73.80
2023-05-09T16:00:05.487Z,73.50
2023-05-09T16:02:33.606Z,72.90
2023-05-09T16:05:01.713Z,72.20
2023-05-09T16:07:33.389Z,71.80
2023-05-09T16:10:03.547Z,71.40
2023-05-09T16:12:32.906Z,71.20
2023-05-09T16:15:01.681Z,71.00
2023-05-09T16:17:31.484Z,70.00
2023-05-09T16:20:01.468Z,70.70
2023-05-09T16:22:32.548Z,71.10
2023-05-09T16:25:01.936Z,69.90
2023-05-09T16:27:34.212Z,70.20
2023-05-09T16:30:03.706Z,70.00
2023-05-09T16:32:33.211Z,69.80
2023-05-09T16:35:02.955Z,69.90
2023-05-09T16:37:35.409Z,69.80
2023-05-09T16:40:05.388Z,69.30
2023-05-09T16:42:34.534Z,69.80
2023-05-09T16:45:03.692Z,69.60
2023-05-09T16:47:32.852Z,69.70
2023-05-09T16:50:02.047Z,69.60
2023-05-09T16:52:32.774Z,69.50
2023-05-09T16:55:01.753Z,69.20
2023-05-09T16:57:30.948Z,68.60
2023-05-09T17:00:00.093Z,68.50
2023-05-09T17:02:29.425Z,67.20
2023-05-09T17:04:58.818Z,67.20
2023-05-09T17:07:28.280Z,67.20
2023-05-09T17:09:58.692Z,66.80
2023-05-09T17:12:27.893Z,67.40
2023-05-09T17:14:57.115Z,67.70
2023-05-09T17:17:26.254Z,67.60
2023-05-09T17:19:55.719Z,67.60
2023-05-09T17:22:24.974Z,67.50
2023-05-09T17:24:54.309Z,67.20
2023-05-09T17:27:25.278Z,67.20
2023-05-09T17:29:54.455Z,67.30
2023-05-09T17:32:23.776Z,66.70
2023-05-09T17:34:53.763Z,66.50
2023-05-09T17:37:23.074Z,66.10
2023-05-09T17:39:53.134Z,65.60
2023-05-09T17:42:24.179Z,64.90
2023-05-09T17:44:53.499Z,64.60
2023-05-09T17:47:23.547Z,64.80
2023-05-09T17:49:52.755Z,65.10
2023-05-09T17:52:21.840Z,65.20
2023-05-09T17:54:51.017Z,65.30
2023-05-09T17:57:19.077Z,65.40
2023-05-09T17:59:48.438Z,65.60
2023-05-09T18:02:16.730Z,65.90
2023-05-09T18:04:46.299Z,66.30
2023-05-09T18:07:14.340Z,66.50
2023-05-09T18:09:42.613Z,66.70
2023-05-09T18:12:10.731Z,67.00
2023-05-09T18:14:40.056Z,67.20
2023-05-09T18:17:09.553Z,67.60
2023-05-09T18:19:37.796Z,67.70
2023-05-09T18:22:05.826Z,68.10
2023-05-09T18:24:33.871Z,68.30
2023-05-09T18:27:03.051Z,68.40
2023-05-09T18:29:31.596Z,68.60
2023-05-09T18:31:59.607Z,69.50
2023-05-09T18:34:28.979Z,68.90
2023-05-09T18:36:57.210Z,69.80
2023-05-09T18:39:25.706Z,69.30
2023-05-09T18:41:54.330Z,69.30
2023-05-09T18:44:22.310Z,69.40
2023-05-09T18:46:50.395Z,69.50
2023-05-09T18:49:18.656Z,69.70
2023-05-09T18:51:48.359Z,69.80
2023-05-09T18:54:16.328Z,70.00
2023-05-09T18:56:44.332Z,70.10
2023-05-09T18:59:13.682Z,70.20
2023-05-09T19:01:42.688Z,70.30
2023-05-09T19:04:10.862Z,70.40
2023-05-09T19:06:39.008Z,70.50
2023-05-09T19:09:08.517Z,70.60
2023-05-09T19:11:36.670Z,70.80
2023-05-09T19:14:05.133Z,71.10
2023-05-09T19:16:33.290Z,71.20
2023-05-09T19:19:02.573Z,71.50
2023-05-09T19:21:30.497Z,71.30
2023-05-09T19:23:58.459Z,71.60
2023-05-09T19:26:27.786Z,71.60
2023-05-09T19:28:55.762Z,71.80
2023-05-09T19:31:25.485Z,71.80
2023-05-09T19:33:53.647Z,71.90
2023-05-09T19:36:21.633Z,72.00
2023-05-09T19:38:49.602Z,72.20
2023-05-09T19:41:17.596Z,72.20
2023-05-09T19:43:48.657Z,72.40
2023-05-09T19:46:19.009Z,72.50
2023-05-09T19:48:46.956Z,72.60
2023-05-09T19:51:15.486Z,72.90
2023-05-09T19:53:43.478Z,72.80
2023-05-09T19:56:12.619Z,73.00
2023-05-09T19:58:40.655Z,73.00
2023-05-09T20:01:10.018Z,73.10
2023-05-09T20:03:40.704Z,73.20
2023-05-09T20:06:09.010Z,73.20
2023-05-09T20:08:36.962Z,73.20
2023-05-09T20:11:05.001Z,73.30
2023-05-09T20:13:32.959Z,73.40
2023-05-09T20:16:02.719Z,73.30
2023-05-09T20:18:33.437Z,73.50
2023-05-09T20:21:01.507Z,73.60
2023-05-09T20:23:29.930Z,73.60
2023-05-09T20:25:57.947Z,73.60
2023-05-09T20:28:25.991Z,73.70
2023-05-09T20:30:54.378Z,73.80
2023-05-09T20:33:22.591Z,73.90
2023-05-09T20:35:51.928Z,74.00
2023-05-09T20:38:19.899Z,74.00
2023-05-09T20:40:47.933Z,74.20
2023-05-09T20:43:15.962Z,74.30
2023-05-09T20:45:44.001Z,74.30
2023-05-09T20:48:12.378Z,74.40
2023-05-09T20:50:40.337Z,74.50
2023-05-09T20:53:09.764Z,74.70
2023-05-09T20:55:37.979Z,74.70
2023-05-09T20:58:05.972Z,74.80
2023-05-09T21:00:34.211Z,74.90
2023-05-09T21:03:02.460Z,75.30
2023-05-09T21:05:30.521Z,75.10
2023-05-09T21:07:58.514Z,75.30
2023-05-09T21:10:27.850Z,75.50
2023-05-09T21:12:55.873Z,75.70
2023-05-09T21:15:23.893Z,75.80
2023-05-09T21:17:51.893Z,76.10
2023-05-09T21:20:20.047Z,76.10
2023-05-09T21:22:48.057Z,77.10
2023-05-09T21:25:17.313Z,76.50
2023-05-09T21:27:46.736Z,76.60
2023-05-09T21:30:15.689Z,76.70
2023-05-09T21:32:43.840Z,76.90
2023-05-09T21:35:13.152Z,76.90
2023-05-09T21:37:41.159Z,77.10
2023-05-09T21:40:10.577Z,77.20
2023-05-09T21:42:40.183Z,77.50
2023-05-09T21:45:10.604Z,77.80
2023-05-09T21:47:39.625Z,77.70
2023-05-09T21:50:08.781Z,77.80
2023-05-09T21:52:36.753Z,77.90
2023-05-09T21:55:05.116Z,78.20
2023-05-09T21:57:33.086Z,78.30
2023-05-09T22:00:01.936Z,78.20
2023-05-09T22:02:31.431Z,78.40
2023-05-09T22:04:59.458Z,78.50
2023-05-09T22:07:27.401Z,78.60
2023-05-09T22:09:55.387Z,78.80
2023-05-09T22:12:23.376Z,78.90
2023-05-09T22:14:56.411Z,79.00
2023-05-09T22:17:25.105Z,79.00
2023-05-09T22:19:54.482Z,79.20
2023-05-09T22:22:22.539Z,79.30
2023-05-09T22:24:50.550Z,79.50
2023-05-09T22:27:18.515Z,79.50
2023-05-09T22:29:47.062Z,79.60
2023-05-09T22:32:15.547Z,79.70
2023-05-09T22:34:43.490Z,79.90
2023-05-09T22:37:12.845Z,80.00
2023-05-09T22:39:40.858Z,80.30
2023-05-09T22:42:11.226Z,80.40
2023-05-09T22:44:39.484Z,80.60
2023-05-09T22:47:08.639Z,80.70
2023-05-09T22:49:36.582Z,80.90
2023-05-09T22:52:04.772Z,81.00
2023-05-09T22:54:34.122Z,81.10
2023-05-09T22:57:02.108Z,81.30
2023-05-09T22:59:30.116Z,81.60
2023-05-09T23:01:58.538Z,81.50
2023-05-09T23:04:26.538Z,81.70
2023-05-09T23:06:54.481Z,81.90
2023-05-09T23:09:22.537Z,82.00
2023-05-09T23:11:51.825Z,82.00
2023-05-09T23:14:19.886Z,82.20
2023-05-09T23:16:48.784Z,82.30
2023-05-09T23:19:16.765Z,82.30
2023-05-09T23:21:44.803Z,82.40
2023-05-09T23:24:12.768Z,82.60
2023-05-09T23:26:40.707Z,82.70
2023-05-09T23:29:10.040Z,82.80
2023-05-09T23:31:38.103Z,82.90
2023-05-09T23:34:06.082Z,83.00
2023-05-09T23:36:34.015Z,83.10
2023-05-09T23:39:01.985Z,83.20
2023-05-09T23:41:29.948Z,83.40
2023-05-09T23:43:58.258Z,83.50
2023-05-09T23:46:27.613Z,83.70
2023-05-09T23:48:55.633Z,83.70
2023-05-09T23:51:23.588Z,84.10
2023-05-09T23:53:51.567Z,83.90
2023-05-09T23:56:19.579Z,84.10
2023-05-09T23:58:47.624Z,84.10
